ENGM Airport Information

Runway Information
Runway 01L Length 11811 ft width 148 ft
Elevation 656 ft Threshold 0 ft Heading 16
Runway 19R Length 11811 ft Width 148 ft
Elevation 675 ft Threshold 0 ft Heading 196
Runway 01R Length 9678 ft width 148 ft
Elevation 670 ft Threshold 0 ft Heading 16
Runway 19L Length 9678 ft Width 148 ft
Elevation 681 ft Threshold 0 ft Heading 196
Airport Frequencies
Type APP Name APP Frequency 119.975 MHZ
Type ATIS Name ATIS Frequency 126.125 MHZ
Type CLD Name CLNC DEL Frequency 121.6 MHZ
Type DIR Name DIRECTOR Frequency 131.35 MHZ
Type GND Name GND Frequency 121.925 MHZ
Type MISC Name DE ICING Frequency 131.975 MHZ
Type OPS Name WINGOPS Frequency 29.38 MHZ
Type PMSV Name PMSV METRO Frequency 134.175 MHZ
Type TWR Name TWR Frequency 118.3 MHZ
Airport Navaids
Type NDB Name Bergerud Frequency 316 KHZ
Type VOR-DME Name Gardermoen Frequency 115950 KHZ
Type NDB Name Oppaker Frequency 334 KHZ
Type NDB Name Solberg Frequency 414 KHZ
Type NDB Name Soknen Frequency 387 KHZ
Airport Weather Information & NOTAM
ADDS - METARS form results

(0449 UTC 01 October 2020)
Data provider http://aviationweather.gov/metar/data/
 
METAR text: ENGM 010420Z 06004KT 9999 OVC012 10/09 Q1015 TEMPO SCT012 BKN030
Conditions at: ENGM (OSLO/GARDERMOEN , NO) observed 0420 UTC 01 October 2020
Temperature: 10.0°C (50°F)
Dewpoint: 9.0°C (48°F) [RH = 93%]
Pressure (altimeter): 29.97 inches Hg (1015.0 mb)
Winds: from the ENE (60 degrees) at 5 MPH (4 knots; 2.1 m/s)
Visibility: 6 or more miles (10+ km)
Ceiling: 1200 feet AGL
Clouds: overcast cloud deck at 1200 feet AGL
Weather: no significant weather observed at this time

METAR text: ENGM 010350Z 04003KT 020V080 9999 SCT012 OVC048 10/09 Q1015 TEMPO BKN012
Conditions at: ENGM (OSLO/GARDERMOEN , NO) observed 0350 UTC 01 October 2020
Temperature: 10.0°C (50°F)
Dewpoint: 9.0°C (48°F) [RH = 93%]
Pressure (altimeter): 29.97 inches Hg (1015.0 mb)
Winds: from the NE (40 degrees) at 3 MPH (3 knots; 1.5 m/s)
Visibility: 6 or more miles (10+ km)
Ceiling: 4800 feet AGL
Clouds: scattered clouds at 1200 feet AGL
overcast cloud deck at 4800 feet AGL
Weather: no significant weather observed at this time

Forecast for: AMD
Text: AMD ENGM 0102/0124 10005KT 9999 SCT010 BKN040
Forecast period: 0200 UTC 01 October 2020 to 0000 UTC 02 October 2020
Forecast type: FROM: standard forecast or significant change
Winds: from the E (100 degrees) at 6 MPH (5 knots; 2.6 m/s)
Visibility: 6 or more miles (10+ km)
Ceiling: 4000 feet AGL
Clouds: scattered clouds at 1000 feet AGL
broken clouds at 4000 feet AGL
Weather: no significant weather forecast for this period
Text: PROB40 0102/0110 BKN010
Forecast period: 0200 to 1000 UTC 01 October 2020
Forecast type: PROBABLE: 40 percent likelihood of the following during this time
Visibility: missing
Ceiling: 1000 feet AGL
Clouds: broken clouds at 1000 feet AGL
Weather: no significant weather forecast for this period